createdAt,value
2019-04-05T00:02:01.185Z,10.00
2019-04-05T00:04:31.540Z,9.77
2019-04-05T00:07:02.283Z,10.27
2019-04-05T00:09:32.823Z,9.87
2019-04-05T00:12:03.106Z,10.13
2019-04-05T00:14:33.922Z,9.93
2019-04-05T00:17:06.022Z,9.87
2019-04-05T00:19:37.328Z,9.83
2019-04-05T00:22:07.743Z,9.83
2019-04-05T00:24:38.398Z,9.57
2019-04-05T00:27:08.736Z,8.80
2019-04-05T00:29:40.158Z,9.37
2019-04-05T00:32:10.615Z,9.60
2019-04-05T00:34:41.442Z,8.80
2019-04-05T00:37:12.164Z,8.90
2019-04-05T00:39:42.900Z,10.13
2019-04-05T00:42:13.604Z,8.23
2019-04-05T00:44:44.300Z,9.47
2019-04-05T00:47:14.582Z,9.30
2019-04-05T00:49:45.094Z,9.47
2019-04-05T00:52:15.838Z,8.87
2019-04-05T00:54:46.223Z,8.13
2019-04-05T00:57:16.630Z,8.67
2019-04-05T00:59:47.558Z,7.90
2019-04-05T01:02:18.032Z,7.30
2019-04-05T01:04:48.620Z,7.27
2019-04-05T01:07:18.913Z,7.30
2019-04-05T01:09:49.512Z,7.37
2019-04-05T01:12:22.185Z,7.40
2019-04-05T01:14:53.609Z,7.27
2019-04-05T01:17:25.227Z,6.87
2019-04-05T01:19:59.928Z,7.00
2019-04-05T01:22:32.078Z,7.83
2019-04-05T01:25:03.107Z,7.43
2019-04-05T01:27:35.172Z,7.10
2019-04-05T01:30:06.956Z,7.90
2019-04-05T01:32:37.261Z,8.13
2019-04-05T01:35:08.341Z,7.60
2019-04-05T01:37:39.008Z,7.43
2019-04-05T01:40:11.381Z,7.13
2019-04-05T01:42:42.635Z,8.30
2019-04-05T01:45:13.165Z,7.50
2019-04-05T01:47:43.869Z,7.33
2019-04-05T01:50:14.628Z,7.37
2019-04-05T01:52:45.403Z,9.13
2019-04-05T01:55:16.565Z,7.80
2019-04-05T01:57:47.226Z,8.67
2019-04-05T02:00:18.063Z,8.43
2019-04-05T02:02:48.791Z,8.63
2019-04-05T02:05:19.922Z,9.40
2019-04-05T02:07:50.209Z,9.10
2019-04-05T02:10:21.102Z,9.07
2019-04-05T02:12:51.697Z,9.37
2019-04-05T02:15:27.582Z,8.90
2019-04-05T02:17:58.897Z,9.30
2019-04-05T02:20:29.366Z,9.97
2019-04-05T02:23:00.145Z,9.07
2019-04-05T02:25:30.859Z,9.97
2019-04-05T02:28:01.141Z,9.00
2019-04-05T02:30:31.799Z,9.27
2019-04-05T02:33:02.541Z,9.40
2019-04-05T02:35:32.921Z,9.90
2019-04-05T02:38:03.240Z,10.00
2019-04-05T02:40:35.784Z,10.63
2019-04-05T02:43:07.639Z,9.23
2019-04-05T02:45:40.187Z,9.47
2019-04-05T02:48:13.679Z,11.20
2019-04-05T02:50:47.042Z,10.60
2019-04-05T02:53:20.121Z,10.33
2019-04-05T02:55:51.306Z,10.70
2019-04-05T02:58:22.399Z,11.00
2019-04-05T03:00:53.851Z,9.70
2019-04-05T03:03:24.804Z,9.70
2019-04-05T03:05:56.074Z,10.27
2019-04-05T03:08:27.484Z,10.70
2019-04-05T03:11:10.819Z,10.63
2019-04-05T03:13:52.289Z,9.27
2019-04-05T03:16:39.468Z,9.97
2019-04-05T03:19:05.418Z,12.57
2019-04-05T03:21:39.037Z,12.30
2019-04-05T03:24:12.942Z,11.13
2019-04-05T03:26:46.930Z,10.97
2019-04-05T03:29:17.738Z,12.90
2019-04-05T03:31:48.518Z,10.67
2019-04-05T03:34:19.190Z,9.63
2019-04-05T03:36:51.817Z,11.80
2019-04-05T03:39:23.788Z,11.63
2019-04-05T03:41:55.065Z,11.63
2019-04-05T03:44:27.072Z,12.50
2019-04-05T03:46:58.083Z,12.07
2019-04-05T03:49:29.972Z,11.50
2019-04-05T03:52:02.119Z,12.13
2019-04-05T03:54:33.068Z,16.50
2019-04-05T03:57:03.852Z,11.70
2019-04-05T03:59:34.486Z,14.93
2019-04-05T04:02:05.106Z,13.13
2019-04-05T04:04:35.742Z,13.07
2019-04-05T04:07:06.990Z,13.83
2019-04-05T04:09:37.370Z,12.77
2019-04-05T04:12:07.892Z,13.57
2019-04-05T04:14:38.910Z,12.47
2019-04-05T04:17:12.603Z,17.13
2019-04-05T04:19:41.558Z,12.73
2019-04-05T04:22:31.378Z,13.13
2019-04-05T04:25:02.055Z,16.00
2019-04-05T04:27:32.485Z,15.23
2019-04-05T04:30:03.094Z,13.47
2019-04-05T04:32:34.651Z,21.37
2019-04-05T04:35:05.188Z,14.00
2019-04-05T04:37:36.475Z,15.33
2019-04-05T04:40:07.331Z,14.20
2019-04-05T04:42:39.057Z,15.13
2019-04-05T04:45:12.349Z,16.47
2019-04-05T04:47:42.176Z,15.73
2019-04-05T04:50:13.085Z,15.67
2019-04-05T04:52:45.647Z,14.70
2019-04-05T04:55:16.148Z,14.00
2019-04-05T04:57:47.883Z,14.90
2019-04-05T05:00:19.034Z,13.13
2019-04-05T05:02:49.678Z,14.43
2019-04-05T05:05:21.118Z,13.27
2019-04-05T05:07:52.272Z,14.10
2019-04-05T05:10:22.648Z,13.47
2019-04-05T05:12:53.224Z,14.70
2019-04-05T05:15:27.110Z,12.53
2019-04-05T05:17:58.722Z,13.67
2019-04-05T05:20:29.212Z,13.27
2019-04-05T05:23:00.149Z,12.80
2019-04-05T05:25:30.997Z,12.90
2019-04-05T05:28:02.908Z,13.97
2019-04-05T05:30:33.593Z,13.17
2019-04-05T05:33:04.665Z,14.00
2019-04-05T05:35:35.575Z,14.57
2019-04-05T05:38:05.992Z,13.07
2019-04-05T05:40:36.403Z,13.80
2019-04-05T05:43:07.276Z,14.97
2019-04-05T05:45:37.657Z,13.70
2019-04-05T05:48:08.484Z,12.97
2019-04-05T05:50:39.266Z,12.03
2019-04-05T05:53:09.856Z,12.80
2019-04-05T05:55:40.644Z,11.73
2019-04-05T05:58:10.968Z,13.90
2019-04-05T06:00:41.387Z,12.93
2019-04-05T06:03:13.183Z,12.83
2019-04-05T06:05:43.488Z,11.70
2019-04-05T06:08:13.805Z,12.40
2019-04-05T06:10:44.539Z,11.57
2019-04-05T06:13:15.056Z,10.23
2019-04-05T06:15:45.347Z,11.83
2019-04-05T06:18:16.073Z,11.23
2019-04-05T06:20:46.954Z,11.47
2019-04-05T06:23:17.271Z,11.27
2019-04-05T06:25:47.921Z,12.40
2019-04-05T06:28:18.253Z,11.70
2019-04-05T06:30:49.117Z,13.23
2019-04-05T06:33:30.986Z,11.57
2019-04-05T06:35:51.876Z,10.87
2019-04-05T06:38:22.686Z,10.93
2019-04-05T06:40:53.065Z,11.63
2019-04-05T06:43:23.487Z,10.20
2019-04-05T06:45:54.318Z,11.87
2019-04-05T06:48:24.900Z,11.17
2019-04-05T06:50:55.165Z,9.53
2019-04-05T06:53:25.737Z,10.30
2019-04-05T06:55:59.497Z,12.13
2019-04-05T06:58:29.573Z,11.00
2019-04-05T07:01:00.349Z,10.93
2019-04-05T07:03:30.844Z,10.73
2019-04-05T07:06:01.537Z,11.27
2019-04-05T07:08:32.251Z,12.93
2019-04-05T07:11:02.985Z,9.53
2019-04-05T07:13:33.566Z,9.60
2019-04-05T07:16:04.353Z,9.90
2019-04-05T07:18:36.310Z,10.10
2019-04-05T07:21:06.915Z,11.70
2019-04-05T07:23:37.529Z,10.97
2019-04-05T07:26:07.905Z,10.53
2019-04-05T07:28:38.239Z,11.30
2019-04-05T07:31:08.887Z,10.73
2019-04-05T07:33:39.449Z,10.30
2019-04-05T07:36:10.042Z,11.77
2019-04-05T07:38:40.377Z,11.40
2019-04-05T07:41:10.670Z,11.03
2019-04-05T07:43:41.242Z,11.17
2019-04-05T07:46:11.699Z,10.83
2019-04-05T07:48:44.943Z,11.70
2019-04-05T07:51:14.437Z,12.07
2019-04-05T07:53:44.950Z,12.53
2019-04-05T07:56:15.227Z,11.73
2019-04-05T07:58:46.384Z,10.47
2019-04-05T08:01:17.155Z,11.87
2019-04-05T08:03:47.710Z,10.83
2019-04-05T08:06:18.087Z,10.97
2019-04-05T08:08:56.997Z,12.13
2019-04-05T08:11:30.526Z,12.00
2019-04-05T08:14:02.668Z,12.67
2019-04-05T08:16:33.011Z,10.87
2019-04-05T08:19:03.847Z,14.10
2019-04-05T08:21:34.582Z,11.77
2019-04-05T08:24:05.031Z,12.50
2019-04-05T08:26:36.638Z,12.10
2019-04-05T08:29:07.633Z,12.60
2019-04-05T08:31:38.030Z,12.20
2019-04-05T08:34:08.648Z,12.17
2019-04-05T08:36:39.449Z,12.23
2019-04-05T08:39:11.131Z,12.77
2019-04-05T08:41:41.423Z,12.27
2019-04-05T08:44:12.417Z,12.30
2019-04-05T08:46:42.732Z,13.93
2019-04-05T08:49:13.207Z,12.40
2019-04-05T08:51:43.852Z,13.10
2019-04-05T08:54:14.365Z,11.97
2019-04-05T08:56:44.657Z,11.60
2019-04-05T08:59:15.543Z,11.60
2019-04-05T09:01:46.157Z,12.93
2019-04-05T09:04:16.589Z,11.70
2019-04-05T09:06:47.048Z,12.87
2019-04-05T09:09:17.397Z,12.03
2019-04-05T09:11:48.098Z,11.97
2019-04-05T09:14:20.832Z,12.00
2019-04-05T09:16:50.692Z,12.23
2019-04-05T09:19:23.824Z,12.03
2019-04-05T09:21:53.685Z,11.83
2019-04-05T09:24:24.012Z,11.27
2019-04-05T09:26:54.877Z,11.63
2019-04-05T09:29:25.659Z,12.00
2019-04-05T09:31:55.960Z,11.47
2019-04-05T09:34:26.507Z,17.20
2019-04-05T09:36:56.879Z,12.33
2019-04-05T09:39:27.228Z,12.23
2019-04-05T09:41:57.823Z,11.70
2019-04-05T09:44:28.331Z,11.30
2019-04-05T09:46:58.905Z,10.80
2019-04-05T09:49:36.752Z,12.00
2019-04-05T09:52:01.914Z,10.43
2019-04-05T09:54:32.361Z,12.10
2019-04-05T09:57:02.972Z,11.63
2019-04-05T09:59:33.443Z,11.10
2019-04-05T10:02:03.754Z,10.97
2019-04-05T10:04:34.317Z,11.70
2019-04-05T10:07:05.691Z,12.47
2019-04-05T10:09:36.048Z,11.00
2019-04-05T10:12:06.504Z,12.77
2019-04-05T10:14:37.174Z,12.30
2019-04-05T10:17:07.798Z,11.17
2019-04-05T10:19:49.217Z,10.97
2019-04-05T10:22:10.498Z,13.07
2019-04-05T10:24:41.182Z,11.30
2019-04-05T10:27:11.499Z,12.13
2019-04-05T10:29:41.841Z,13.43
2019-04-05T10:32:12.542Z,11.57
2019-04-05T10:34:42.987Z,11.93
2019-04-05T10:37:13.312Z,11.90
2019-04-05T10:39:44.106Z,11.80
2019-04-05T10:42:31.172Z,12.33
2019-04-05T10:45:01.842Z,11.50
2019-04-05T10:47:32.187Z,11.07
2019-04-05T10:50:03.722Z,10.23
2019-04-05T10:52:34.622Z,9.60
2019-04-05T10:55:05.708Z,11.37
2019-04-05T10:57:36.240Z,10.90
2019-04-05T11:00:10.060Z,10.37
2019-04-05T11:02:40.541Z,10.73
2019-04-05T11:05:11.139Z,10.20
2019-04-05T11:07:41.779Z,11.87
2019-04-05T11:10:13.620Z,10.13
2019-04-05T11:12:44.018Z,11.43
2019-04-05T11:15:15.258Z,10.90
2019-04-05T11:17:45.790Z,10.73
2019-04-05T11:20:23.825Z,10.73
2019-04-05T11:22:50.088Z,11.70
2019-04-05T11:25:21.281Z,11.37
2019-04-05T11:27:53.257Z,10.90
2019-04-05T11:30:41.124Z,12.67
2019-04-05T11:33:11.618Z,11.77
2019-04-05T11:35:42.156Z,11.87
2019-04-05T11:38:14.610Z,11.50
2019-04-05T11:40:46.629Z,12.50
2019-04-05T11:43:18.339Z,11.50
2019-04-05T11:45:50.822Z,12.73
2019-04-05T11:48:21.673Z,13.23
2019-04-05T11:50:52.430Z,12.53
2019-04-05T11:53:22.941Z,13.53
2019-04-05T11:55:53.527Z,12.63
2019-04-05T11:58:24.321Z,13.43
2019-04-05T12:01:23.622Z,12.80
2019-04-05T12:03:54.405Z,12.73
2019-04-05T12:06:25.719Z,14.90
2019-04-05T12:08:56.051Z,13.10
2019-04-05T12:11:26.339Z,14.17
2019-04-05T12:13:57.047Z,13.20
2019-04-05T12:16:27.624Z,12.77
2019-04-05T12:18:59.020Z,13.03
2019-04-05T12:21:29.846Z,11.50
2019-04-05T12:24:00.479Z,13.07
2019-04-05T12:26:34.485Z,12.07
2019-04-05T12:29:04.996Z,13.10
2019-04-05T12:31:35.267Z,13.10
2019-04-05T12:34:05.825Z,12.17
2019-04-05T12:36:36.563Z,12.23
2019-04-05T12:39:08.639Z,13.73
2019-04-05T12:41:40.864Z,12.37
2019-04-05T12:44:15.257Z,13.60
2019-04-05T12:46:45.839Z,13.07
2019-04-05T12:49:15.958Z,13.30
2019-04-05T12:51:46.751Z,12.50
2019-04-05T12:54:17.140Z,13.73
2019-04-05T12:56:47.678Z,14.07
2019-04-05T12:59:18.362Z,12.77
2019-04-05T13:01:48.657Z,13.67
2019-04-05T13:04:20.672Z,14.17
2019-04-05T13:06:53.010Z,13.03
2019-04-05T13:09:24.667Z,13.73
2019-04-05T13:11:57.403Z,12.77
2019-04-05T13:14:27.722Z,12.27
2019-04-05T13:17:01.701Z,12.70
2019-04-05T13:19:30.625Z,11.53
2019-04-05T13:22:02.870Z,12.53
2019-04-05T13:24:34.464Z,12.03
2019-04-05T13:27:05.055Z,12.57
2019-04-05T13:29:35.739Z,12.63
2019-04-05T13:32:06.006Z,13.03
2019-04-05T13:34:36.906Z,11.90
2019-04-05T13:37:19.597Z,12.80
2019-04-05T13:39:40.691Z,11.40
2019-04-05T13:42:11.361Z,12.43
2019-04-05T13:44:41.938Z,12.90
2019-04-05T13:47:12.278Z,12.17
2019-04-05T13:49:43.344Z,11.60
2019-04-05T13:52:13.896Z,12.47
2019-04-05T13:54:44.535Z,12.33
2019-04-05T13:57:14.871Z,13.10
2019-04-05T13:59:45.337Z,12.97
2019-04-05T14:02:15.714Z,11.17
2019-04-05T14:04:46.253Z,12.03
2019-04-05T14:07:16.556Z,11.87
2019-04-05T14:09:47.312Z,11.40
2019-04-05T14:12:18.070Z,12.30
2019-04-05T14:14:51.306Z,11.23
2019-04-05T14:17:20.528Z,12.80
2019-04-05T14:19:51.200Z,10.00
2019-04-05T14:22:22.484Z,11.73
2019-04-05T14:24:56.667Z,11.37
2019-04-05T14:27:26.712Z,11.20
2019-04-05T14:29:57.266Z,11.23
2019-04-05T14:32:27.823Z,11.60
2019-04-05T14:34:58.157Z,11.47
2019-04-05T14:37:28.550Z,11.43
2019-04-05T14:40:00.489Z,11.97
2019-04-05T14:42:30.851Z,11.50
2019-04-05T14:45:01.436Z,9.40
2019-04-05T14:47:32.005Z,10.03
2019-04-05T14:50:02.519Z,10.77
2019-04-05T14:52:33.964Z,10.70
2019-04-05T14:55:05.145Z,10.33
2019-04-05T14:57:36.571Z,11.10
2019-04-05T15:00:08.305Z,9.83
2019-04-05T15:02:39.128Z,9.17
2019-04-05T15:05:09.904Z,10.30
2019-04-05T15:07:40.543Z,8.73
2019-04-05T15:10:11.074Z,8.30
2019-04-05T15:12:41.397Z,9.97
2019-04-05T15:15:13.166Z,8.60
2019-04-05T15:17:48.237Z,9.00
2019-04-05T15:20:17.076Z,8.73
2019-04-05T15:22:47.722Z,9.93
2019-04-05T15:25:21.580Z,8.93
2019-04-05T15:27:55.400Z,9.20
2019-04-05T15:30:26.520Z,9.47
2019-04-05T15:32:58.708Z,10.13
2019-04-05T15:35:30.171Z,9.80
2019-04-05T15:38:02.149Z,9.53
2019-04-05T15:40:32.717Z,9.50
2019-04-05T15:43:03.503Z,9.57
2019-04-05T15:45:34.283Z,9.33
2019-04-05T15:48:04.570Z,9.97
2019-04-05T15:50:35.264Z,9.90
2019-04-05T15:53:05.653Z,9.83
2019-04-05T15:55:36.081Z,9.33
2019-04-05T15:58:06.465Z,9.93
2019-04-05T16:00:46.557Z,8.83
2019-04-05T16:03:17.166Z,8.50
2019-04-05T16:05:47.572Z,9.27
2019-04-05T16:08:19.549Z,9.43
2019-04-05T16:10:50.227Z,8.17
2019-04-05T16:13:20.980Z,8.73
2019-04-05T16:15:51.430Z,9.30
2019-04-05T16:18:21.926Z,9.33
2019-04-05T16:20:52.638Z,9.80
2019-04-05T16:23:22.950Z,9.00
2019-04-05T16:25:53.333Z,9.07
2019-04-05T16:28:24.091Z,9.03
2019-04-05T16:30:54.462Z,8.50
2019-04-05T16:33:24.956Z,9.27
2019-04-05T16:35:55.524Z,11.10
2019-04-05T16:38:26.023Z,10.17
2019-04-05T16:40:56.779Z,10.70
2019-04-05T16:43:27.370Z,11.37
2019-04-05T16:45:57.711Z,11.80
2019-04-05T16:48:28.607Z,12.10
2019-04-05T16:50:58.917Z,14.60
2019-04-05T16:53:29.433Z,11.73
2019-04-05T16:55:59.888Z,12.77
2019-04-05T16:58:30.305Z,13.43
2019-04-05T17:01:00.625Z,13.93
2019-04-05T17:03:32.181Z,12.10
2019-04-05T17:06:02.559Z,13.90
2019-04-05T17:08:32.979Z,13.17
2019-04-05T17:11:03.555Z,16.03
2019-04-05T17:13:34.174Z,14.00
2019-04-05T17:16:04.759Z,13.53
2019-04-05T17:18:35.183Z,14.93
2019-04-05T17:21:05.573Z,15.77
2019-04-05T17:23:36.089Z,14.67
2019-04-05T17:26:06.529Z,13.60
2019-04-05T17:28:37.165Z,13.60
2019-04-05T17:31:07.767Z,13.00
2019-04-05T17:33:38.130Z,14.13
2019-04-05T17:36:08.571Z,13.40
2019-04-05T17:38:39.136Z,14.17
2019-04-05T17:41:09.780Z,13.93
2019-04-05T17:43:40.465Z,15.23
2019-04-05T17:46:11.048Z,16.57
2019-04-05T17:48:41.806Z,14.03
2019-04-05T17:51:12.337Z,14.90
2019-04-05T17:53:42.688Z,16.13
2019-04-05T17:56:14.697Z,15.83
2019-04-05T17:58:45.423Z,16.47
2019-04-05T18:01:15.811Z,17.80
2019-04-05T18:03:46.318Z,17.57
2019-04-05T18:06:16.957Z,18.17
2019-04-05T18:08:47.251Z,19.50
2019-04-05T18:11:18.018Z,20.50
2019-04-05T18:13:48.551Z,18.17
2019-04-05T18:16:18.986Z,18.33
2019-04-05T18:18:49.339Z,26.70
2019-04-05T18:21:19.733Z,31.30
2019-04-05T18:23:50.363Z,27.97
2019-04-05T18:26:21.015Z,29.10
2019-04-05T18:28:52.265Z,30.07
2019-04-05T18:31:23.113Z,25.10
2019-04-05T18:33:53.812Z,25.67
2019-04-05T18:36:24.500Z,27.73
2019-04-05T18:38:54.859Z,26.90
2019-04-05T18:41:25.525Z,23.23
2019-04-05T18:43:55.884Z,22.83
2019-04-05T18:46:26.448Z,24.17
2019-04-05T18:48:57.056Z,23.60
2019-04-05T18:51:27.916Z,25.73
2019-04-05T18:53:58.312Z,26.10
2019-04-05T18:56:28.661Z,26.30
2019-04-05T18:58:59.199Z,27.13
2019-04-05T19:01:29.868Z,27.30
2019-04-05T19:04:00.209Z,30.07
2019-04-05T19:06:30.563Z,28.77
2019-04-05T19:09:01.123Z,29.73
2019-04-05T19:11:33.262Z,28.50
2019-04-05T19:14:03.559Z,27.03
2019-04-05T19:16:34.425Z,24.67
2019-04-05T19:19:05.167Z,24.50
2019-04-05T19:21:35.603Z,24.23
2019-04-05T19:24:06.298Z,24.60
2019-04-05T19:26:36.649Z,22.67
2019-04-05T19:29:07.309Z,23.03
2019-04-05T19:49:23.731Z,21.37
2019-04-05T19:51:54.183Z,20.10
2019-04-05T19:54:26.392Z,19.93
2019-04-05T19:56:56.891Z,18.30
2019-04-05T19:59:27.446Z,18.70
2019-04-05T20:01:57.779Z,18.03
2019-04-05T20:04:29.891Z,17.90
2019-04-05T20:07:00.659Z,16.17
2019-04-05T20:09:31.360Z,18.07
2019-04-05T20:12:03.526Z,16.03
2019-04-05T20:14:34.248Z,13.63
2019-04-05T20:17:04.810Z,15.77
2019-04-05T20:19:35.171Z,16.00
2019-04-05T20:22:05.774Z,16.33
2019-04-05T20:24:36.152Z,19.67
2019-04-05T20:27:06.598Z,17.03
2019-04-05T20:29:36.908Z,17.77
2019-04-05T20:32:08.041Z,19.37
2019-04-05T20:34:38.691Z,20.00
2019-04-05T20:37:09.099Z,18.57
2019-04-05T20:39:39.524Z,18.97
2019-04-05T20:42:10.242Z,18.10
2019-04-05T20:44:40.591Z,18.13
2019-04-05T20:47:11.010Z,19.27
2019-04-05T20:49:41.463Z,17.83
2019-04-05T20:52:11.910Z,19.10
2019-04-05T20:54:42.338Z,17.20
2019-04-05T20:57:15.426Z,18.63
2019-04-05T20:59:45.881Z,21.13
2019-04-05T21:02:16.899Z,20.03
2019-04-05T21:04:48.491Z,17.73
2019-04-05T21:07:18.879Z,15.50
2019-04-05T21:09:49.549Z,16.57
2019-04-05T21:12:19.955Z,15.30
2019-04-05T21:14:50.558Z,14.20
2019-04-05T21:17:21.548Z,13.70
2019-04-05T21:19:52.087Z,13.87
2019-04-05T21:22:22.618Z,14.93
2019-04-05T21:24:53.391Z,15.20
2019-04-05T21:27:24.083Z,14.97
2019-04-05T21:29:54.455Z,16.53
2019-04-05T21:32:25.069Z,15.23
2019-04-05T21:34:56.658Z,15.37
2019-04-05T21:37:26.989Z,14.53
2019-04-05T21:39:57.409Z,15.83
2019-04-05T21:42:27.821Z,14.83
2019-04-05T21:44:58.105Z,14.83
2019-04-05T21:47:28.492Z,16.47
2019-04-05T21:49:59.127Z,15.43
2019-04-05T21:52:29.450Z,15.40
2019-04-05T21:54:59.736Z,16.23
2019-04-05T21:57:31.507Z,15.40
2019-04-05T22:00:02.023Z,14.37
2019-04-05T22:02:34.518Z,14.50
2019-04-05T22:05:05.557Z,14.63
2019-04-05T22:07:35.883Z,14.23
2019-04-05T22:10:07.013Z,13.27
2019-04-05T22:12:37.469Z,13.63
2019-04-05T22:15:07.939Z,16.73
2019-04-05T22:17:38.503Z,17.13
2019-04-05T22:20:09.316Z,14.90
2019-04-05T22:22:39.634Z,15.63
2019-04-05T22:25:10.633Z,16.80
2019-04-05T22:27:41.297Z,15.73
2019-04-05T22:30:11.677Z,14.93
2019-04-05T22:32:42.618Z,14.10
2019-04-05T22:35:13.969Z,14.00
2019-04-05T22:37:44.550Z,14.00
2019-04-05T22:40:15.405Z,15.87
2019-04-05T22:42:45.727Z,14.87
2019-04-05T22:45:16.112Z,15.03
2019-04-05T22:47:46.497Z,13.07
2019-04-05T22:50:16.986Z,15.03
2019-04-05T22:52:47.504Z,15.20
2019-04-05T22:55:18.143Z,14.33
2019-04-05T22:57:48.624Z,14.83
2019-04-05T23:00:19.078Z,15.63
2019-04-05T23:02:53.243Z,15.60
2019-04-05T23:05:24.504Z,14.47
2019-04-05T23:07:55.206Z,15.63
2019-04-05T23:10:25.503Z,14.90
2019-04-05T23:12:56.173Z,13.77
2019-04-05T23:15:27.514Z,15.90
2019-04-05T23:17:57.797Z,14.83
2019-04-05T23:20:28.139Z,13.80
2019-04-05T23:22:58.806Z,13.33
2019-04-05T23:25:29.356Z,15.93
2019-04-05T23:27:59.729Z,15.27
2019-04-05T23:30:31.226Z,16.73
2019-04-05T23:33:01.562Z,16.80
2019-04-05T23:35:31.875Z,15.30
2019-04-05T23:38:02.594Z,15.70
2019-04-05T23:40:34.050Z,15.97
2019-04-05T23:43:04.887Z,15.80
2019-04-05T23:45:35.205Z,14.33
2019-04-05T23:48:05.512Z,15.77
2019-04-05T23:50:36.324Z,16.07
2019-04-05T23:53:06.603Z,16.80
2019-04-05T23:55:36.938Z,15.17
2019-04-05T23:58:07.724Z,15.50
